createdAt,value
2022-08-17T00:00:38.036Z,76.13
2022-08-17T00:03:17.494Z,76.19
2022-08-17T00:05:53.507Z,76.16
2022-08-17T00:08:23.196Z,76.06
2022-08-17T00:10:51.906Z,76.09
2022-08-17T00:13:24.044Z,75.79
2022-08-17T00:15:54.621Z,75.74
2022-08-17T00:19:02.140Z,75.54
2022-08-17T00:21:11.964Z,75.82
2022-08-17T00:23:47.857Z,75.77
2022-08-17T00:26:44.352Z,75.69
2022-08-17T00:29:07.490Z,75.65
2022-08-17T00:31:36.376Z,75.63
2022-08-17T00:34:05.421Z,75.67
2022-08-17T00:36:33.241Z,75.41
2022-08-17T00:39:01.089Z,75.32
2022-08-17T00:41:29.539Z,75.28
2022-08-17T00:44:02.034Z,75.31
2022-08-17T00:46:31.955Z,75.28
2022-08-17T00:49:00.436Z,75.33
2022-08-17T00:51:46.769Z,75.61
2022-08-17T00:54:42.017Z,75.68
2022-08-17T00:57:17.796Z,75.69
2022-08-17T01:00:03.076Z,75.81
2022-08-17T01:02:40.354Z,75.93
2022-08-17T01:05:23.732Z,75.99
2022-08-17T01:07:53.863Z,75.94
2022-08-17T01:11:00.423Z,76.28
2022-08-17T01:13:14.338Z,76.42
2022-08-17T01:15:46.636Z,76.22
2022-08-17T01:18:14.949Z,76.13
2022-08-17T01:20:48.570Z,76.07
2022-08-17T01:23:20.504Z,76.17
2022-08-17T01:25:57.032Z,76.51
2022-08-17T01:28:52.567Z,76.46
2022-08-17T01:31:14.804Z,76.42
2022-08-17T01:33:42.786Z,77.97
2022-08-17T01:36:10.903Z,77.59
2022-08-17T01:38:39.396Z,77.47
2022-08-17T01:41:11.398Z,77.45
2022-08-17T01:43:47.717Z,77.31
2022-08-17T01:46:21.266Z,77.36
2022-08-17T01:48:51.259Z,77.20
2022-08-17T01:51:20.611Z,76.73
2022-08-17T01:53:50.444Z,76.99
2022-08-17T01:56:20.052Z,77.95
2022-08-17T01:58:47.984Z,77.87
2022-08-17T02:01:18.729Z,77.77
2022-08-17T02:03:56.202Z,77.49
2022-08-17T02:06:52.410Z,77.51
2022-08-17T02:09:25.838Z,77.43
2022-08-17T02:11:54.474Z,77.33
2022-08-17T02:14:23.447Z,77.35
2022-08-17T02:16:51.903Z,77.26
2022-08-17T02:19:20.051Z,77.49
2022-08-17T02:21:49.524Z,77.43
2022-08-17T02:25:00.688Z,77.26
2022-08-17T02:27:08.493Z,77.56
2022-08-17T02:29:37.364Z,77.35
2022-08-17T02:32:05.521Z,77.34
2022-08-17T02:34:33.448Z,77.21
2022-08-17T02:37:03.506Z,77.04
2022-08-17T02:39:31.568Z,77.00
2022-08-17T02:42:03.353Z,78.08
2022-08-17T02:44:38.873Z,78.30
2022-08-17T02:47:08.885Z,78.59
2022-08-17T02:49:37.423Z,78.37
2022-08-17T02:52:06.708Z,78.22
2022-08-17T02:54:39.900Z,78.03
2022-08-17T02:57:10.797Z,77.89
2022-08-17T02:59:39.591Z,77.86
2022-08-17T03:02:08.489Z,77.72
2022-08-17T03:04:37.023Z,77.84
2022-08-17T03:07:05.301Z,77.78
2022-08-17T03:09:33.271Z,77.73
2022-08-17T03:12:09.212Z,78.20
2022-08-17T03:14:41.436Z,78.38
2022-08-17T03:17:10.655Z,78.58
2022-08-17T03:19:42.244Z,78.91
2022-08-17T03:22:35.713Z,78.53
2022-08-17T03:24:59.159Z,78.26
2022-08-17T03:27:27.572Z,78.20
2022-08-17T03:29:55.414Z,78.36
2022-08-17T03:32:23.398Z,78.53
2022-08-17T03:34:51.469Z,78.34
2022-08-17T03:37:21.079Z,80.56
2022-08-17T03:39:49.403Z,81.25
2022-08-17T03:42:31.962Z,80.06
2022-08-17T03:45:03.954Z,79.84
2022-08-17T03:47:50.754Z,79.34
2022-08-17T03:50:37.683Z,79.24
2022-08-17T03:53:28.577Z,79.32
2022-08-17T03:56:17.851Z,79.22
2022-08-17T03:58:46.013Z,79.02
2022-08-17T04:01:14.161Z,79.04
2022-08-17T04:03:42.040Z,79.13
2022-08-17T04:06:09.888Z,79.29
2022-08-17T04:08:37.994Z,79.34
2022-08-17T04:11:06.116Z,79.32
2022-08-17T04:13:33.934Z,79.18
2022-08-17T04:16:02.140Z,79.22
2022-08-17T04:18:30.111Z,79.23
2022-08-17T04:20:58.186Z,79.42
2022-08-17T04:23:32.828Z,79.35
2022-08-17T04:26:02.744Z,79.24
2022-08-17T04:28:31.176Z,79.17
2022-08-17T04:30:59.240Z,79.16
2022-08-17T04:33:28.159Z,79.29
2022-08-17T04:35:58.710Z,79.54
2022-08-17T04:38:30.926Z,79.46
2022-08-17T04:41:18.047Z,79.58
2022-08-17T04:43:47.380Z,79.63
2022-08-17T04:46:17.193Z,79.56
2022-08-17T04:48:46.886Z,79.62
2022-08-17T04:51:20.002Z,79.73
2022-08-17T04:53:54.346Z,79.79
2022-08-17T04:56:25.185Z,79.61
2022-08-17T04:58:54.835Z,79.30
2022-08-17T05:01:24.645Z,79.01
2022-08-17T05:03:53.745Z,78.80
2022-08-17T05:06:21.799Z,78.53
2022-08-17T05:08:50.188Z,78.33
2022-08-17T05:11:18.329Z,78.24
2022-08-17T05:13:46.437Z,78.02
2022-08-17T05:16:14.458Z,77.73
2022-08-17T05:18:42.675Z,77.11
2022-08-17T05:21:10.583Z,77.42
2022-08-17T05:23:42.564Z,77.30
2022-08-17T05:26:19.884Z,77.31
2022-08-17T05:28:56.965Z,77.01
2022-08-17T05:31:25.929Z,76.89
2022-08-17T05:33:53.801Z,76.81
2022-08-17T05:36:43.660Z,76.65
2022-08-17T05:39:10.777Z,76.55
2022-08-17T05:41:44.995Z,76.22
2022-08-17T05:44:12.860Z,76.26
2022-08-17T05:46:42.107Z,76.71
2022-08-17T05:49:11.083Z,76.44
2022-08-17T05:51:45.075Z,76.15
2022-08-17T05:54:21.434Z,76.07
2022-08-17T05:56:52.397Z,76.03
2022-08-17T05:59:26.431Z,76.07
2022-08-17T06:02:15.865Z,76.06
2022-08-17T06:04:49.788Z,76.16
2022-08-17T06:07:25.749Z,76.61
2022-08-17T06:10:13.405Z,76.78
2022-08-17T06:12:41.254Z,76.24
2022-08-17T06:15:12.934Z,76.33
2022-08-17T06:17:41.646Z,75.92
2022-08-17T06:20:11.687Z,75.62
2022-08-17T06:22:46.337Z,75.25
2022-08-17T06:25:26.265Z,73.00
2022-08-17T06:27:58.886Z,68.55
2022-08-17T06:30:29.474Z,62.54
2022-08-17T06:33:24.303Z,56.82
2022-08-17T06:36:02.946Z,54.29
2022-08-17T06:38:46.757Z,49.52
2022-08-17T06:41:18.031Z,43.85
2022-08-17T06:44:01.271Z,45.11
2022-08-17T06:46:29.282Z,42.97
2022-08-17T06:49:09.254Z,41.26
2022-08-17T06:51:43.463Z,40.04
2022-08-17T06:54:15.403Z,40.69
2022-08-17T06:56:55.992Z,41.25
2022-08-17T06:59:55.427Z,41.32
2022-08-17T07:02:18.975Z,39.29
2022-08-17T07:05:01.795Z,41.22
2022-08-17T07:07:48.812Z,40.74
2022-08-17T07:10:17.580Z,41.65
2022-08-17T07:12:46.039Z,41.56
2022-08-17T07:15:20.348Z,41.34
2022-08-17T07:17:48.608Z,41.19
2022-08-17T07:20:20.674Z,41.23
2022-08-17T07:23:01.923Z,40.39
2022-08-17T07:25:30.906Z,40.47
2022-08-17T07:28:00.798Z,39.36
2022-08-17T07:30:47.265Z,39.90
2022-08-17T07:33:20.350Z,41.17
2022-08-17T07:35:50.170Z,41.26
2022-08-17T07:38:25.834Z,41.69
2022-08-17T07:41:05.379Z,41.81
2022-08-17T07:43:33.310Z,42.48
2022-08-17T07:46:35.368Z,42.86
2022-08-17T07:49:08.919Z,43.21
2022-08-17T07:51:37.518Z,42.93
2022-08-17T07:54:25.924Z,42.79
2022-08-17T07:56:55.384Z,42.44
2022-08-17T07:59:25.491Z,43.21
2022-08-17T08:01:57.479Z,41.99
2022-08-17T08:05:01.412Z,40.69
2022-08-17T08:07:34.854Z,42.42
2022-08-17T08:10:10.961Z,42.61
2022-08-17T08:12:46.507Z,43.16
2022-08-17T08:15:26.308Z,41.84
2022-08-17T08:17:57.656Z,41.08
2022-08-17T08:20:51.059Z,41.70
2022-08-17T08:23:21.479Z,42.16
2022-08-17T08:26:09.574Z,41.21
2022-08-17T08:28:53.419Z,39.61
2022-08-17T08:31:42.078Z,40.32
2022-08-17T08:34:49.700Z,41.63
2022-08-17T08:37:32.667Z,42.51
2022-08-17T08:40:08.569Z,42.69
2022-08-17T08:42:36.789Z,42.93
2022-08-17T08:45:43.508Z,43.24
2022-08-17T08:48:22.981Z,43.22
2022-08-17T08:51:19.938Z,42.21
2022-08-17T08:53:54.102Z,42.56
2022-08-17T08:56:22.109Z,42.62
2022-08-17T08:58:56.823Z,42.86
2022-08-17T09:01:27.714Z,42.99
2022-08-17T09:04:26.086Z,42.78
2022-08-17T09:07:06.313Z,41.54
2022-08-17T09:09:47.286Z,40.43
2022-08-17T09:12:22.151Z,40.43
2022-08-17T09:15:12.988Z,40.89
2022-08-17T09:17:55.725Z,38.55
2022-08-17T09:20:50.170Z,39.32
2022-08-17T09:23:25.495Z,39.03
2022-08-17T09:26:05.500Z,39.69
2022-08-17T09:28:38.008Z,39.46
2022-08-17T09:31:11.421Z,39.23
2022-08-17T09:33:44.600Z,39.12
2022-08-17T09:36:17.174Z,38.78
2022-08-17T09:39:03.631Z,38.97
2022-08-17T09:41:31.544Z,38.12
2022-08-17T09:44:04.441Z,37.58
2022-08-17T09:46:38.946Z,38.16
2022-08-17T09:49:10.737Z,38.58
2022-08-17T09:51:41.952Z,38.89
2022-08-17T09:54:38.113Z,38.65
2022-08-17T09:57:28.625Z,38.24
2022-08-17T09:59:55.444Z,38.73
2022-08-17T10:02:30.005Z,38.47
2022-08-17T10:05:08.999Z,38.58
2022-08-17T10:07:42.619Z,38.30
2022-08-17T10:10:33.662Z,37.94
2022-08-17T10:13:18.761Z,39.13
2022-08-17T10:16:03.117Z,38.99
2022-08-17T10:18:49.638Z,39.29
2022-08-17T10:21:37.184Z,38.86
2022-08-17T10:25:21.492Z,38.83
2022-08-17T10:27:48.996Z,39.01
2022-08-17T10:30:18.462Z,38.47
2022-08-17T10:32:48.852Z,38.23
2022-08-17T10:35:26.158Z,38.31
2022-08-17T10:37:56.816Z,36.05
2022-08-17T10:40:43.142Z,35.67
2022-08-17T10:43:29.532Z,36.25
2022-08-17T10:46:09.249Z,37.08
2022-08-17T10:48:47.447Z,36.66
2022-08-17T10:51:38.067Z,36.23
2022-08-17T10:54:07.683Z,36.97
2022-08-17T10:56:46.939Z,36.54
2022-08-17T10:59:33.570Z,35.89
2022-08-17T11:02:04.627Z,36.39
2022-08-17T11:04:47.956Z,36.64
2022-08-17T11:07:25.869Z,36.51
2022-08-17T11:10:03.125Z,36.60
2022-08-17T11:12:35.724Z,35.45
2022-08-17T11:15:12.732Z,35.16
2022-08-17T11:17:41.643Z,35.24
2022-08-17T11:20:09.507Z,36.54
2022-08-17T11:22:50.227Z,36.28
2022-08-17T11:25:20.307Z,35.89
2022-08-17T11:27:53.913Z,35.75
2022-08-17T11:30:43.577Z,35.01
2022-08-17T11:33:31.750Z,34.12
2022-08-17T11:36:20.000Z,35.07
2022-08-17T11:39:06.908Z,35.69
2022-08-17T11:41:47.204Z,35.61
2022-08-17T11:44:38.200Z,36.08
2022-08-17T11:47:31.067Z,35.66
2022-08-17T11:50:17.373Z,35.76
2022-08-17T11:52:47.363Z,34.96
2022-08-17T11:55:37.451Z,34.84
2022-08-17T11:58:27.131Z,35.16
2022-08-17T12:01:01.962Z,35.32
2022-08-17T12:03:33.088Z,35.48
2022-08-17T12:06:17.828Z,35.02
2022-08-17T12:08:51.118Z,34.10
2022-08-17T12:12:11.140Z,34.60
2022-08-17T12:14:39.915Z,33.68
2022-08-17T12:17:26.504Z,33.94
2022-08-17T12:20:29.298Z,33.60
2022-08-17T12:23:01.175Z,34.07
2022-08-17T12:25:45.343Z,33.96
2022-08-17T12:28:25.252Z,32.47
2022-08-17T12:30:54.286Z,31.65
2022-08-17T12:33:28.118Z,32.77
2022-08-17T12:35:59.704Z,33.99
2022-08-17T12:38:32.288Z,34.05
2022-08-17T12:41:25.358Z,33.94
2022-08-17T12:43:58.727Z,33.40
2022-08-17T12:46:26.811Z,33.52
2022-08-17T12:48:59.676Z,33.65
2022-08-17T12:51:29.399Z,32.79
2022-08-17T12:53:57.399Z,32.83
2022-08-17T12:56:25.792Z,32.43
2022-08-17T12:58:55.603Z,31.87
2022-08-17T13:01:25.296Z,32.22
2022-08-17T13:03:54.897Z,31.99
2022-08-17T13:06:32.413Z,32.50
2022-08-17T13:09:14.154Z,32.43
2022-08-17T13:11:49.612Z,31.88
2022-08-17T13:14:20.651Z,33.23
2022-08-17T13:16:51.432Z,33.35
2022-08-17T13:19:40.006Z,32.82
2022-08-17T13:22:11.198Z,32.57
2022-08-17T13:24:49.523Z,32.24
2022-08-17T13:27:20.335Z,32.44
2022-08-17T13:29:53.781Z,32.12
2022-08-17T13:32:23.308Z,31.91
2022-08-17T13:35:13.811Z,32.43
2022-08-17T13:37:57.142Z,32.48
2022-08-17T13:40:35.998Z,32.73
2022-08-17T13:43:04.277Z,32.12
2022-08-17T13:45:43.562Z,32.32
2022-08-17T13:48:18.845Z,33.02
2022-08-17T13:50:55.732Z,33.56
2022-08-17T13:53:31.588Z,33.40
2022-08-17T13:56:03.437Z,33.78
2022-08-17T13:58:33.352Z,34.51
2022-08-17T14:01:19.784Z,34.45
2022-08-17T14:03:47.726Z,33.84
2022-08-17T14:06:52.612Z,34.17
2022-08-17T14:09:08.342Z,34.13
2022-08-17T14:11:36.526Z,34.01
2022-08-17T14:14:04.518Z,34.09
2022-08-17T14:16:32.372Z,34.64
2022-08-17T14:19:00.223Z,36.96
2022-08-17T14:21:28.089Z,39.71
2022-08-17T14:23:56.105Z,41.09
2022-08-17T14:26:24.020Z,45.02
2022-08-17T14:28:54.729Z,46.07
2022-08-17T14:31:25.119Z,46.46
2022-08-17T14:33:53.012Z,47.00
2022-08-17T14:36:21.028Z,48.45
2022-08-17T14:38:48.955Z,48.81
2022-08-17T14:41:22.021Z,47.45
2022-08-17T14:43:52.967Z,46.86
2022-08-17T14:46:20.812Z,46.85
2022-08-17T14:48:55.207Z,46.34
2022-08-17T14:51:26.537Z,46.73
2022-08-17T14:53:54.504Z,45.55
2022-08-17T14:56:23.033Z,45.83
2022-08-17T14:58:51.954Z,45.26
2022-08-17T15:01:21.021Z,45.12
2022-08-17T15:03:49.079Z,45.72
2022-08-17T15:06:17.140Z,46.22
2022-08-17T15:08:45.011Z,45.53
2022-08-17T15:11:14.527Z,45.94
2022-08-17T15:13:52.824Z,45.96
2022-08-17T15:16:21.599Z,46.04
2022-08-17T15:18:50.278Z,46.01
2022-08-17T15:21:18.824Z,46.19
2022-08-17T15:23:46.868Z,46.38
2022-08-17T15:26:14.810Z,46.35
2022-08-17T15:28:42.812Z,46.01
2022-08-17T15:31:10.679Z,46.02
2022-08-17T15:33:39.325Z,46.37
2022-08-17T15:36:08.193Z,47.30
2022-08-17T15:38:39.653Z,46.30
2022-08-17T15:41:08.636Z,45.81
2022-08-17T15:43:36.997Z,45.58
2022-08-17T15:46:06.548Z,45.07
2022-08-17T15:48:41.897Z,44.82
2022-08-17T15:51:21.036Z,45.23
2022-08-17T15:53:50.965Z,46.44
2022-08-17T15:56:19.286Z,49.79
2022-08-17T15:58:48.097Z,51.42
2022-08-17T16:01:42.298Z,54.45
2022-08-17T16:04:21.252Z,57.01
2022-08-17T16:06:53.385Z,56.48
2022-08-17T16:09:21.298Z,56.45
2022-08-17T16:11:53.665Z,58.67
2022-08-17T16:14:30.286Z,59.00
2022-08-17T16:17:03.645Z,59.64
2022-08-17T16:19:33.286Z,61.47
2022-08-17T16:22:01.408Z,59.90
2022-08-17T16:24:30.105Z,60.78
2022-08-17T16:26:58.253Z,62.05
2022-08-17T16:29:26.072Z,62.27
2022-08-17T16:31:54.438Z,67.50
2022-08-17T16:34:22.590Z,69.86
2022-08-17T16:36:54.899Z,66.54
2022-08-17T16:39:29.288Z,65.30
2022-08-17T16:41:57.865Z,65.42
2022-08-17T16:44:30.988Z,65.17
2022-08-17T16:47:01.023Z,65.21
2022-08-17T16:49:37.032Z,65.69
2022-08-17T16:52:07.396Z,68.78
2022-08-17T16:54:37.554Z,67.28
2022-08-17T16:57:05.671Z,67.48
2022-08-17T16:59:41.922Z,66.61
2022-08-17T17:02:14.338Z,66.64
2022-08-17T17:04:51.088Z,67.24
2022-08-17T17:07:18.936Z,67.52
2022-08-17T17:09:52.821Z,67.31
2022-08-17T17:12:34.924Z,67.17
2022-08-17T17:15:10.691Z,67.12
2022-08-17T17:17:39.994Z,69.39
2022-08-17T17:20:09.864Z,68.47
2022-08-17T17:22:58.180Z,67.90
2022-08-17T17:25:32.241Z,67.81
2022-08-17T17:28:33.460Z,67.76
2022-08-17T17:31:06.087Z,67.90
2022-08-17T17:33:48.358Z,67.62
2022-08-17T17:36:28.655Z,67.47
2022-08-17T17:39:09.832Z,67.14
2022-08-17T17:41:49.167Z,67.31
2022-08-17T17:44:20.702Z,67.22
2022-08-17T17:46:51.038Z,67.55
2022-08-17T17:49:19.480Z,67.65
2022-08-17T17:52:08.044Z,67.66
2022-08-17T17:54:57.891Z,67.63
2022-08-17T17:57:31.876Z,67.77
2022-08-17T18:00:03.631Z,67.70
2022-08-17T18:02:58.535Z,67.83
2022-08-17T18:05:46.787Z,67.58
2022-08-17T18:08:14.611Z,67.77
2022-08-17T18:10:49.122Z,67.92
2022-08-17T18:13:20.568Z,68.21
2022-08-17T18:15:51.593Z,68.45
2022-08-17T18:18:37.993Z,68.79
2022-08-17T18:21:09.166Z,69.63
2022-08-17T18:23:37.103Z,69.85
2022-08-17T18:26:05.260Z,69.38
2022-08-17T18:28:36.863Z,69.42
2022-08-17T18:31:19.122Z,69.62
2022-08-17T18:33:48.365Z,69.78
2022-08-17T18:36:30.938Z,69.81
2022-08-17T18:39:17.611Z,69.80
2022-08-17T18:41:47.135Z,69.87
2022-08-17T18:44:24.122Z,70.12
2022-08-17T18:47:18.406Z,70.13
2022-08-17T18:49:48.985Z,69.78
2022-08-17T18:52:21.485Z,70.50
2022-08-17T18:55:11.399Z,70.60
2022-08-17T18:57:44.276Z,70.77
2022-08-17T19:00:18.542Z,70.96
2022-08-17T19:02:52.199Z,71.14
2022-08-17T19:05:39.990Z,71.71
2022-08-17T19:08:32.404Z,72.41
2022-08-17T19:11:03.826Z,71.84
2022-08-17T19:13:34.142Z,71.89
2022-08-17T19:16:15.101Z,71.96
2022-08-17T19:18:46.373Z,72.05
2022-08-17T19:21:16.757Z,71.91
2022-08-17T19:23:53.822Z,72.05
2022-08-17T19:26:54.199Z,72.38
2022-08-17T19:29:16.706Z,72.59
2022-08-17T19:31:47.559Z,72.70
2022-08-17T19:34:16.723Z,72.73
2022-08-17T19:37:02.761Z,72.75
2022-08-17T19:39:38.381Z,72.73
2022-08-17T19:42:25.450Z,72.86
2022-08-17T19:45:09.015Z,73.35
2022-08-17T19:47:55.199Z,73.23
2022-08-17T19:50:24.329Z,73.47
2022-08-17T19:52:52.962Z,73.16
2022-08-17T19:55:23.877Z,73.23
2022-08-17T19:58:00.775Z,73.42
2022-08-17T20:00:31.269Z,73.63
2022-08-17T20:02:59.264Z,73.61
2022-08-17T20:05:30.477Z,73.66
2022-08-17T20:08:02.745Z,73.70
2022-08-17T20:10:34.350Z,73.85
2022-08-17T20:13:05.351Z,74.06
2022-08-17T20:15:35.464Z,74.08
2022-08-17T20:18:07.168Z,74.32
2022-08-17T20:20:49.608Z,74.39
2022-08-17T20:23:28.827Z,74.86
2022-08-17T20:26:19.100Z,74.59
2022-08-17T20:29:05.855Z,74.47
2022-08-17T20:31:40.020Z,74.30
2022-08-17T20:34:33.512Z,74.73
2022-08-17T20:37:09.744Z,74.68
2022-08-17T20:39:40.520Z,74.68
2022-08-17T20:42:11.036Z,74.64
2022-08-17T20:44:40.581Z,74.52
2022-08-17T20:47:26.488Z,74.53
2022-08-17T20:49:58.288Z,74.32
2022-08-17T20:52:46.328Z,74.26
2022-08-17T20:55:51.439Z,74.33
2022-08-17T20:58:23.377Z,74.13
2022-08-17T21:00:57.147Z,74.24
2022-08-17T21:03:26.808Z,74.35
2022-08-17T21:06:00.053Z,74.43
2022-08-17T21:08:45.834Z,74.53
2022-08-17T21:12:02.735Z,74.56
2022-08-17T21:14:19.799Z,74.53
2022-08-17T21:17:06.848Z,74.56
2022-08-17T21:20:11.087Z,74.37
2022-08-17T21:22:48.594Z,74.53
2022-08-17T21:25:25.276Z,74.65
2022-08-17T21:28:04.080Z,74.56
2022-08-17T21:30:35.060Z,74.98
2022-08-17T21:33:16.658Z,75.02
2022-08-17T21:35:47.495Z,74.84
2022-08-17T21:38:16.566Z,74.76
2022-08-17T21:40:45.621Z,75.05
2022-08-17T21:43:27.118Z,74.73
2022-08-17T21:46:18.033Z,74.85
2022-08-17T21:48:48.090Z,75.19
2022-08-17T21:51:23.575Z,75.22
2022-08-17T21:53:53.306Z,75.34
2022-08-17T21:56:40.880Z,75.42
2022-08-17T21:59:25.292Z,75.51
2022-08-17T22:01:53.261Z,75.39
2022-08-17T22:04:25.555Z,75.55
2022-08-17T22:06:57.258Z,75.57
2022-08-17T22:09:31.457Z,75.48
2022-08-17T22:12:12.756Z,75.91
2022-08-17T22:14:53.370Z,75.95
2022-08-17T22:17:25.268Z,75.70
2022-08-17T22:19:56.550Z,75.70
2022-08-17T22:22:27.299Z,75.63
2022-08-17T22:24:57.785Z,76.04
2022-08-17T22:27:45.975Z,76.21
2022-08-17T22:30:28.826Z,75.67
2022-08-17T22:32:57.373Z,75.64
2022-08-17T22:35:25.215Z,75.76
2022-08-17T22:37:53.122Z,75.87
2022-08-17T22:40:25.357Z,75.77
2022-08-17T22:42:53.900Z,76.02
2022-08-17T22:45:23.141Z,76.07
2022-08-17T22:47:53.997Z,75.90
2022-08-17T22:50:26.351Z,75.82
2022-08-17T22:53:20.538Z,75.81
2022-08-17T22:56:08.596Z,75.92
2022-08-17T22:59:00.631Z,76.22
2022-08-17T23:01:30.377Z,76.21
2022-08-17T23:04:01.588Z,76.59
2022-08-17T23:06:30.580Z,76.44
2022-08-17T23:08:58.579Z,76.29
2022-08-17T23:11:42.865Z,76.46
2022-08-17T23:14:19.320Z,77.03
2022-08-17T23:16:49.185Z,76.76
2022-08-17T23:19:18.613Z,76.72
2022-08-17T23:21:47.092Z,76.65
2022-08-17T23:24:17.245Z,76.52
2022-08-17T23:26:45.094Z,76.51
2022-08-17T23:29:13.488Z,76.67
2022-08-17T23:31:41.794Z,76.84
2022-08-17T23:34:11.833Z,77.03
2022-08-17T23:36:39.946Z,77.03
2022-08-17T23:39:07.995Z,77.18
2022-08-17T23:41:38.576Z,77.08
2022-08-17T23:44:07.198Z,77.19
2022-08-17T23:46:35.371Z,77.52
2022-08-17T23:49:03.596Z,77.46
2022-08-17T23:51:34.838Z,77.10
2022-08-17T23:54:11.862Z,77.14
2022-08-17T23:56:48.521Z,77.22
2022-08-17T23:59:21.645Z,77.26
